Time;durP1;ratioP1;P1;durP2;ratioP2;P2;SDS_P1;SDS_P2;PMS_P1;PMS_P2;Temp;Humidity;BMP_temperature;BMP_pressure;BME280_temperature;BME280_humidity;BME280_pressure;Samples;Min_cycle;Max_cycle;Signal;HPM_P1;HPM_P2
2023/01/04 00:00:09;;;;;;;12.50;8.40;;;6.10;99.90;;;;;;5057246;28;20224;-36
2023/01/04 00:02:34;;;;;;;9.03;8.13;;;6.10;99.90;;;;;;5055939;28;20557;-34
2023/01/04 00:05:00;;;;;;;9.57;8.67;;;6.10;99.90;;;;;;5055510;28;20443;-35
2023/01/04 00:07:28;;;;;;;9.43;8.43;;;6.10;89.10;;;;;;5055316;28;20197;-35
2023/01/04 00:09:54;;;;;;;9.23;8.33;;;6.10;79.80;;;;;;5056393;28;20231;-35
2023/01/04 00:12:20;;;;;;;10.27;9.37;;;6.10;99.90;;;;;;5055762;28;20807;-35
2023/01/04 00:14:46;;;;;;;11.43;9.20;;;6.00;99.90;;;;;;5055688;28;20201;-35
2023/01/04 00:17:11;;;;;;;9.60;8.70;;;6.00;99.90;;;;;;5055846;28;20553;-35
2023/01/04 00:19:37;;;;;;;9.67;8.77;;;6.00;99.90;;;;;;5056077;28;20425;-35
2023/01/04 00:22:03;;;;;;;10.37;9.37;;;6.00;99.90;;;;;;5056249;28;20181;-35
2023/01/04 00:24:28;;;;;;;9.80;8.70;;;5.90;99.90;;;;;;5059799;28;20185;-36
2023/01/04 00:26:54;;;;;;;8.47;7.60;;;5.90;99.90;;;;;;5060159;28;20267;-35
2023/01/04 00:29:20;;;;;;;9.40;8.50;;;5.90;99.90;;;;;;5060431;28;20424;-35
2023/01/04 00:31:45;;;;;;;9.30;8.40;;;5.90;99.90;;;;;;5060927;28;20486;-36
2023/01/04 00:34:13;;;;;;;10.13;9.13;;;5.90;99.90;;;;;;5059112;28;20181;-36
2023/01/04 00:36:39;;;;;;;9.40;8.53;;;5.80;99.90;;;;;;5057059;28;20209;-35
2023/01/04 00:39:08;;;;;;;9.43;8.53;;;5.80;59.70;;;;;;5057856;28;20431;-35
2023/01/04 00:41:48;;;;;;;9.60;8.40;;;5.80;11.30;;;;;;5057631;28;20189;-35
2023/01/04 00:44:15;;;;;;;9.80;8.80;;;5.80;1.00;;;;;;5058761;28;20564;-35
2023/01/04 00:46:41;;;;;;;10.67;9.57;;;5.80;1.00;;;;;;5058451;28;20471;-35
2023/01/04 00:49:09;;;;;;;10.40;9.30;;;5.70;1.00;;;;;;5059765;28;20416;-36
2023/01/04 00:51:35;;;;;;;11.67;9.33;;;5.70;1.00;;;;;;5059040;28;20499;-35
2023/01/04 00:54:02;;;;;;;9.30;8.40;;;5.70;16.10;;;;;;5057940;28;20424;-35
2023/01/04 00:56:29;;;;;;;10.03;9.03;;;5.70;30.00;;;;;;5057739;28;20409;-35
2023/01/04 00:58:55;;;;;;;10.33;9.33;;;5.60;99.90;;;;;;5058376;28;20430;-35
2023/01/04 01:01:21;;;;;;;10.37;9.17;;;5.60;99.90;;;;;;5059210;28;20419;-36
2023/01/04 01:03:47;;;;;;;9.90;8.47;;;5.60;99.90;;;;;;5059058;28;20766;-35
2023/01/04 01:06:13;;;;;;;12.70;9.70;;;5.50;99.90;;;;;;5058826;28;20460;-36
2023/01/04 01:08:38;;;;;;;10.67;9.57;;;5.50;99.90;;;;;;5060657;28;20524;-36
2023/01/04 01:11:08;;;;;;;11.17;9.80;;;5.60;99.90;;;;;;5060815;28;20182;-35
2023/01/04 01:13:35;;;;;;;9.50;8.43;;;5.60;99.90;;;;;;5060629;28;20569;-35
2023/01/04 01:16:09;;;;;;;9.03;8.10;;;5.60;1.00;;;;;;5058951;28;20412;-36
2023/01/04 01:18:36;;;;;;;10.50;9.40;;;5.60;1.00;;;;;;5059894;28;20428;-35
2023/01/04 01:21:06;;;;;;;10.80;9.70;;;5.60;1.00;;;;;;5060436;28;20412;-35
2023/01/04 01:23:32;;;;;;;10.40;9.40;;;5.60;1.00;;;;;;5060649;28;20424;-35
2023/01/04 01:26:02;;;;;;;10.90;9.73;;;5.70;1.00;;;;;;5060089;28;20875;-35
2023/01/04 01:28:27;;;;;;;11.37;10.10;;;5.70;1.00;;;;;;5059735;28;20170;-34
2023/01/04 01:30:53;;;;;;;10.43;9.33;;;5.70;1.00;;;;;;5059177;28;20424;-34
2023/01/04 01:33:19;;;;;;;10.23;9.23;;;5.70;1.00;;;;;;5060240;28;20424;-35
2023/01/04 01:35:45;;;;;;;9.90;8.90;;;5.70;1.00;;;;;;5059355;28;20413;-35
2023/01/04 01:38:10;;;;;;;10.23;9.23;;;5.70;1.00;;;;;;5059237;28;20208;-36
2023/01/04 01:40:43;;;;;;;10.03;9.03;;;5.60;1.00;;;;;;5059218;28;20201;-35
2023/01/04 01:43:17;;;;;;;9.63;8.33;;;5.60;1.00;;;;;;5058864;28;20186;-36
2023/01/04 01:45:44;;;;;;;9.83;8.83;;;5.70;1.00;;;;;;5060074;28;20471;-35
2023/01/04 01:48:14;;;;;;;10.10;9.07;;;5.60;1.00;;;;;;5058609;28;20474;-35
2023/01/04 01:50:44;;;;;;;9.20;8.30;;;5.60;1.00;;;;;;5059334;28;20417;-35
2023/01/04 01:53:10;;;;;;;10.63;9.53;;;5.60;1.00;;;;;;5060157;28;20420;-35
2023/01/04 01:55:37;;;;;;;10.10;9.00;;;5.60;1.00;;;;;;5059326;28;20416;-35
2023/01/04 01:58:04;;;;;;;10.63;9.10;;;5.50;1.00;;;;;;5057571;28;20420;-35
2023/01/04 02:00:30;;;;;;;9.17;8.27;;;5.50;1.00;;;;;;5057843;28;20482;-35
2023/01/04 02:03:02;;;;;;;9.47;8.57;;;5.50;1.00;;;;;;5057751;28;20455;-37
2023/01/04 02:05:29;;;;;;;11.80;10.10;;;5.50;1.00;;;;;;5058916;28;20408;-35
2023/01/04 02:07:54;;;;;;;9.00;8.10;;;5.40;1.00;;;;;;5041406;28;20435;-35
2023/01/04 02:10:20;;;;;;;9.97;8.80;;;5.40;1.00;;;;;;5059371;28;20409;-36
2023/01/04 02:12:46;;;;;;;10.60;9.50;;;5.40;1.00;;;;;;5058340;28;20174;-35
2023/01/04 02:15:12;;;;;;;9.47;8.40;;;5.40;1.00;;;;;;5059574;28;20577;-35
2023/01/04 02:17:44;;;;;;;9.30;8.20;;;5.40;1.00;;;;;;5059089;28;20424;-35
2023/01/04 02:20:28;;;;;;;9.07;8.17;;;5.30;1.00;;;;;;5058633;28;20439;-36
2023/01/04 02:23:12;;;;;;;8.77;7.93;;;5.30;1.00;;;;;;5059815;28;20424;-35
2023/01/04 02:26:02;;;;;;;9.00;7.87;;;5.30;1.00;;;;;;5058997;28;20523;-36
2023/01/04 02:28:52;;;;;;;8.27;7.47;;;5.30;99.90;;;;;;5059295;28;20423;-35
2023/01/04 02:31:27;;;;;;;9.17;8.17;;;5.30;99.90;;;;;;5059093;28;20423;-35
2023/01/04 02:34:18;;;;;;;9.30;8.33;;;5.30;99.90;;;;;;5059545;28;20427;-36
2023/01/04 02:37:22;;;;;;;8.80;8.00;;;5.20;99.90;;;;;;5059656;28;20412;-36
2023/01/04 02:40:07;;;;;;;9.70;8.20;;;5.20;99.90;;;;;;5058056;28;20427;-36
2023/01/04 02:46:00;;;;;;;8.67;7.77;;;5.20;99.90;;;;;;5058546;28;20810;-36
2023/01/04 02:51:35;;;;;;;8.37;7.40;;;5.10;1.00;;;;;;5058357;28;20430;-35
2023/01/04 02:54:26;;;;;;;8.27;7.47;;;5.10;1.00;;;;;;5059386;28;20403;-35
2023/01/04 02:57:01;;;;;;;8.47;7.30;;;5.10;1.00;;;;;;5052880;28;20527;-34
2023/01/04 02:59:29;;;;;;;9.00;7.40;;;5.10;1.00;;;;;;5059225;28;20408;-35
2023/01/04 03:08:37;;;;;;;7.10;6.27;;;5.00;99.90;;;;;;5057664;28;20702;-35
2023/01/04 03:14:03;;;;;;;9.73;6.40;;;5.00;99.90;;;;;;5058028;28;20538;-36
2023/01/04 03:16:29;;;;;;;7.67;6.03;;;4.90;99.90;;;;;;5040543;28;20439;-35
2023/01/04 03:18:57;;;;;;;6.73;5.80;;;5.00;99.90;;;;;;5057943;28;20847;-36
2023/01/04 03:21:24;;;;;;;5.80;5.20;;;5.00;99.90;;;;;;5041063;28;20933;-36
2023/01/04 03:35:22;;;;;;;5.23;4.73;;;4.90;99.90;;;;;;5057178;28;20915;-36
2023/01/04 03:49:30;;;;;;;4.70;4.30;;;4.90;99.90;;;;;;5056928;28;20842;-36
2023/01/04 03:51:57;;;;;;;5.50;4.83;;;4.90;99.90;;;;;;5056772;28;20473;-35
2023/01/04 03:54:38;;;;;;;4.80;4.40;;;4.90;99.90;;;;;;5057390;28;20416;-35
2023/01/04 03:57:05;;;;;;;4.90;4.40;;;4.90;1.00;;;;;;5057563;28;20493;-35
2023/01/04 03:59:33;;;;;;;4.87;4.47;;;5.00;1.00;;;;;;5040310;28;20486;-36
2023/01/04 04:01:59;;;;;;;4.87;4.37;;;5.00;1.00;;;;;;5056885;28;20502;-36
2023/01/04 04:09:52;;;;;;;4.23;3.83;;;5.10;1.00;;;;;;5057240;28;20478;-36
2023/01/04 04:12:18;;;;;;;4.63;4.23;;;5.10;1.00;;;;;;5057504;28;20428;-35
2023/01/04 04:14:43;;;;;;;4.30;3.90;;;5.10;1.00;;;;;;5057632;28;20232;-36
2023/01/04 04:17:09;;;;;;;6.23;4.40;;;5.20;1.00;;;;;;5057762;28;20178;-36
2023/01/04 04:19:35;;;;;;;4.17;3.77;;;5.20;1.00;;;;;;5056419;28;20512;-36
2023/01/04 04:22:00;;;;;;;4.50;3.80;;;5.20;1.00;;;;;;5055816;28;20243;-35
2023/01/04 04:24:26;;;;;;;4.30;3.90;;;5.20;1.00;;;;;;5055399;28;20181;-35
2023/01/04 04:26:53;;;;;;;3.80;3.40;;;5.30;1.00;;;;;;5056698;28;20592;-36
2023/01/04 04:29:19;;;;;;;5.10;4.10;;;5.30;1.00;;;;;;5055468;28;20423;-35
2023/01/04 04:31:45;;;;;;;5.47;3.80;;;5.30;1.00;;;;;;5056347;28;20416;-34
2023/01/04 04:34:11;;;;;;;4.07;3.50;;;5.40;1.00;;;;;;5037900;28;20692;-35
2023/01/04 04:36:38;;;;;;;4.43;3.33;;;5.40;1.00;;;;;;5055687;28;20540;-35
2023/01/04 04:39:04;;;;;;;3.77;3.43;;;5.40;1.00;;;;;;5054511;28;20843;-35
2023/01/04 04:41:40;;;;;;;3.77;3.20;;;5.50;1.00;;;;;;5037863;28;20423;-36
2023/01/04 04:44:19;;;;;;;3.63;3.27;;;5.50;1.00;;;;;;5054627;28;20486;-36
2023/01/04 04:46:46;;;;;;;4.10;3.70;;;5.50;1.00;;;;;;5055585;28;20476;-35
2023/01/04 04:49:12;;;;;;;3.20;2.90;;;5.50;1.00;;;;;;5055243;28;20420;-35
2023/01/04 04:55:00;;;;;;;3.60;2.80;;;5.60;1.00;;;;;;5055622;28;20391;-36
2023/01/04 04:57:27;;;;;;;2.67;2.47;;;5.70;1.00;;;;;;5055653;28;20412;-36
2023/01/04 04:59:52;;;;;;;3.80;3.10;;;5.70;1.00;;;;;;5056243;28;20182;-35
2023/01/04 05:02:18;;;;;;;3.47;3.17;;;5.70;1.00;;;;;;5057043;28;20490;-36
2023/01/04 05:04:43;;;;;;;3.50;3.20;;;5.70;1.00;;;;;;5056571;28;20170;-36
2023/01/04 05:07:09;;;;;;;4.10;3.70;;;5.80;1.00;;;;;;5055140;28;20240;-36
2023/01/04 05:09:34;;;;;;;4.57;3.80;;;5.80;1.00;;;;;;5056793;28;20186;-36
2023/01/04 05:15:01;;;;;;;4.67;3.90;;;5.80;1.00;;;;;;5038674;28;20539;-36
2023/01/04 05:17:28;;;;;;;3.00;2.63;;;5.80;1.00;;;;;;5056089;28;20898;-37
2023/01/04 05:19:54;;;;;;;5.53;4.33;;;5.90;1.00;;;;;;5060124;28;20430;-36
2023/01/04 05:22:19;;;;;;;4.60;3.43;;;5.90;1.00;;;;;;5060301;28;20703;-36
2023/01/04 05:24:45;;;;;;;3.60;3.30;;;5.90;1.00;;;;;;5059909;28;20181;-36
2023/01/04 05:27:10;;;;;;;3.57;3.13;;;5.90;1.00;;;;;;5059630;28;20240;-36
2023/01/04 05:32:20;;;;;;;4.23;2.87;;;6.00;1.00;;;;;;5059223;28;20526;-36
2023/01/04 05:34:46;;;;;;;3.83;3.43;;;6.00;1.00;;;;;;5059855;28;20416;-36
2023/01/04 05:37:11;;;;;;;5.07;3.70;;;6.00;1.00;;;;;;5060025;28;20182;-36
2023/01/04 05:39:37;;;;;;;3.90;3.03;;;6.10;28.20;;;;;;5059518;28;20186;-36
2023/01/04 05:44:46;;;;;;;3.73;3.30;;;6.10;99.90;;;;;;5058870;28;20340;-36
2023/01/04 05:47:12;;;;;;;4.30;3.50;;;6.10;99.90;;;;;;5059792;28;20575;-36
2023/01/04 05:49:37;;;;;;;3.90;3.50;;;6.20;99.90;;;;;;5057973;28;20459;-36
2023/01/04 05:52:03;;;;;;;4.30;3.60;;;6.20;99.90;;;;;;5058601;28;20178;-36
2023/01/04 05:54:29;;;;;;;4.83;3.47;;;6.20;99.90;;;;;;5057029;28;20169;-36
2023/01/04 05:56:54;;;;;;;3.93;3.50;;;6.20;99.90;;;;;;5056509;28;20284;-36
2023/01/04 05:59:20;;;;;;;4.83;4.03;;;6.30;99.90;;;;;;5057877;28;20574;-36
2023/01/04 06:01:45;;;;;;;4.17;3.57;;;6.30;82.20;;;;;;5058285;28;20211;-36
2023/01/04 06:04:11;;;;;;;4.63;3.80;;;6.30;48.80;;;;;;5056579;28;20648;-35
2023/01/04 06:06:37;;;;;;;4.77;3.80;;;6.30;39.00;;;;;;5059292;28;20205;-36
2023/01/04 06:09:02;;;;;;;3.67;3.30;;;6.40;23.30;;;;;;5059183;28;20181;-35
2023/01/04 06:11:28;;;;;;;3.80;3.30;;;6.40;28.10;;;;;;5056901;28;20697;-36
2023/01/04 06:13:53;;;;;;;3.80;3.50;;;6.40;14.00;;;;;;5056099;28;20479;-36
2023/01/04 06:16:19;;;;;;;4.80;4.00;;;6.40;1.00;;;;;;5056763;28;20173;-36
2023/01/04 06:18:45;;;;;;;4.30;3.90;;;6.40;1.00;;;;;;5056616;28;20458;-37
2023/01/04 06:21:10;;;;;;;4.30;3.33;;;6.40;1.00;;;;;;5055129;28;20612;-36
2023/01/04 06:23:36;;;;;;;3.63;3.27;;;6.40;1.00;;;;;;5054743;28;20446;-36
2023/01/04 06:26:01;;;;;;;3.50;3.07;;;6.50;1.00;;;;;;5057792;28;20206;-36
2023/01/04 06:28:28;;;;;;;2.90;2.60;;;6.40;1.00;;;;;;5058560;28;20430;-36
2023/01/04 06:30:54;;;;;;;3.40;2.97;;;6.50;1.00;;;;;;5058245;28;20465;-37
2023/01/04 06:33:20;;;;;;;3.13;2.83;;;6.50;1.00;;;;;;5056870;28;20426;-36
2023/01/04 06:35:53;;;;;;;3.00;2.70;;;6.50;1.00;;;;;;5057094;28;20178;-36
2023/01/04 06:38:19;;;;;;;3.90;3.13;;;6.50;1.00;;;;;;5057786;28;20431;-36
2023/01/04 06:40:44;;;;;;;3.30;2.80;;;6.50;1.00;;;;;;5059170;28;20416;-36
2023/01/04 06:43:10;;;;;;;2.93;2.63;;;6.60;1.00;;;;;;5057435;28;20177;-37
2023/01/04 06:45:35;;;;;;;3.90;2.40;;;6.60;99.90;;;;;;5058112;28;20180;-36
2023/01/04 06:48:01;;;;;;;3.17;2.87;;;6.60;99.90;;;;;;5058028;28;20170;-35
2023/01/04 06:50:26;;;;;;;3.10;2.60;;;6.60;99.90;;;;;;5056628;28;20213;-36
2023/01/04 06:52:52;;;;;;;3.10;2.63;;;6.60;99.90;;;;;;5056322;28;20268;-36
2023/01/04 06:55:18;;;;;;;3.00;2.50;;;6.60;99.90;;;;;;5054863;28;20607;-36
2023/01/04 06:57:43;;;;;;;3.63;3.03;;;6.60;99.90;;;;;;5055427;28;20178;-36
2023/01/04 07:00:09;;;;;;;3.47;3.00;;;6.60;99.90;;;;;;5055162;28;20174;-36
2023/01/04 07:02:35;;;;;;;2.63;2.40;;;6.60;99.90;;;;;;5056030;28;20553;-36
2023/01/04 07:05:01;;;;;;;3.30;2.60;;;6.60;99.90;;;;;;5055321;28;20479;-38
2023/01/04 07:07:27;;;;;;;3.57;3.07;;;6.60;99.90;;;;;;5058089;28;20214;-36
2023/01/04 07:09:52;;;;;;;3.93;3.53;;;6.60;99.90;;;;;;5057622;28;20835;-36
2023/01/04 07:12:18;;;;;;;3.73;3.40;;;6.60;99.90;;;;;;5057079;28;20178;-36
2023/01/04 07:14:44;;;;;;;3.40;3.03;;;6.70;99.90;;;;;;5056331;28;20193;-36
2023/01/04 07:17:09;;;;;;;3.73;2.97;;;6.70;75.30;;;;;;5056538;28;20478;-36
2023/01/04 07:19:35;;;;;;;3.77;2.73;;;6.70;28.40;;;;;;5056863;28;20190;-36
2023/01/04 07:22:01;;;;;;;3.20;2.50;;;6.70;1.00;;;;;;5056683;28;20504;-36
2023/01/04 07:24:26;;;;;;;4.40;2.70;;;6.70;1.00;;;;;;5055242;28;20197;-36
2023/01/04 07:26:52;;;;;;;2.30;2.03;;;6.80;1.00;;;;;;5055056;28;20233;-36
2023/01/04 07:29:18;;;;;;;2.87;2.30;;;6.80;1.00;;;;;;5055656;28;20190;-35
2023/01/04 07:31:46;;;;;;;3.17;2.20;;;6.80;99.90;;;;;;5054698;28;20197;-35
2023/01/04 07:34:13;;;;;;;2.37;2.07;;;6.80;99.90;;;;;;5053861;28;20174;-36
2023/01/04 07:36:39;;;;;;;4.83;2.40;;;6.80;99.90;;;;;;5054235;28;20424;-36
2023/01/04 07:39:05;;;;;;;3.20;2.17;;;6.80;99.90;;;;;;5055518;28;20436;-36
2023/01/04 07:41:31;;;;;;;3.40;2.00;;;6.80;99.90;;;;;;5057593;28;20489;-37
2023/01/04 07:43:56;;;;;;;2.23;1.60;;;6.80;99.90;;;;;;5055608;28;20500;-36
2023/01/04 07:46:22;;;;;;;3.23;1.70;;;6.80;99.90;;;;;;5056411;28;20205;-36
2023/01/04 07:48:47;;;;;;;2.10;1.67;;;6.80;99.90;;;;;;5055680;28;20573;-36
2023/01/04 07:51:13;;;;;;;2.97;1.60;;;6.90;99.90;;;;;;5056336;28;20170;-36
2023/01/04 07:53:39;;;;;;;1.70;1.33;;;6.90;99.90;;;;;;5054796;28;20188;-36
2023/01/04 07:56:05;;;;;;;4.40;1.47;;;6.90;99.90;;;;;;5055833;28;20182;-36
2023/01/04 07:58:31;;;;;;;2.10;1.43;;;6.90;99.90;;;;;;5054764;28;20181;-41
2023/01/04 08:01:08;;;;;;;2.33;1.43;;;6.90;99.90;;;;;;5055276;28;20436;-36
2023/01/04 08:03:34;;;;;;;1.90;1.43;;;6.90;99.90;;;;;;5054484;28;20470;-36
2023/01/04 08:06:04;;;;;;;1.77;1.00;;;7.00;99.90;;;;;;5054963;28;20895;-36
2023/01/04 08:08:30;;;;;;;1.77;1.40;;;7.00;99.90;;;;;;5054896;28;20625;-36
2023/01/04 08:11:00;;;;;;;3.00;1.67;;;7.00;99.90;;;;;;5053810;28;20519;-35
2023/01/04 08:13:26;;;;;;;1.47;1.23;;;7.00;99.90;;;;;;5055011;28;20277;-36
2023/01/04 08:15:52;;;;;;;4.90;1.50;;;7.00;99.90;;;;;;5055038;28;20515;-36
2023/01/04 08:18:18;;;;;;;2.53;1.20;;;7.00;99.90;;;;;;5055708;28;20192;-36
2023/01/04 08:20:43;;;;;;;2.10;1.40;;;7.00;99.90;;;;;;5053462;28;20429;-36
2023/01/04 08:23:09;;;;;;;2.00;1.10;;;7.00;99.90;;;;;;5054447;28;20184;-36
2023/01/04 08:25:34;;;;;;;1.90;1.60;;;7.00;99.90;;;;;;5054386;28;20453;-35
2023/01/04 08:28:00;;;;;;;2.07;1.37;;;7.10;99.90;;;;;;5055535;28;20239;-36
2023/01/04 08:30:27;;;;;;;2.70;1.30;;;7.10;99.90;;;;;;5054717;28;20177;-36
2023/01/04 08:32:53;;;;;;;2.37;1.63;;;7.10;99.90;;;;;;5054798;28;20173;-35
2023/01/04 08:35:19;;;;;;;1.40;1.30;;;7.10;99.90;;;;;;5052287;28;20412;-36
2023/01/04 08:37:45;;;;;;;1.80;1.37;;;7.20;52.90;;;;;;5051373;28;20166;-36
2023/01/04 08:40:11;;;;;;;3.10;1.60;;;7.20;1.00;;;;;;5053131;28;20773;-36
2023/01/04 08:42:36;;;;;;;2.17;1.57;;;7.20;1.00;;;;;;5053218;28;20500;-36
2023/01/04 08:45:03;;;;;;;2.00;1.30;;;7.30;1.00;;;;;;5054388;28;20468;-36
2023/01/04 08:47:30;;;;;;;2.77;1.40;;;7.30;1.00;;;;;;5055942;28;20514;-36
2023/01/04 08:49:57;;;;;;;2.10;1.27;;;7.30;1.00;;;;;;5057582;28;20699;-36
2023/01/04 08:52:22;;;;;;;2.10;1.50;;;7.30;99.90;;;;;;5057721;28;20420;-36
2023/01/04 08:54:48;;;;;;;2.77;1.80;;;7.40;99.90;;;;;;5058621;28;20880;-36
2023/01/04 08:57:15;;;;;;;2.67;2.07;;;7.40;99.90;;;;;;5058302;28;20174;-36
2023/01/04 08:59:40;;;;;;;2.30;2.00;;;7.40;58.40;;;;;;5058558;28;20193;-36
2023/01/04 09:02:33;;;;;;;2.27;1.27;;;7.40;25.70;;;;;;5057790;28;20432;-36
2023/01/04 09:04:58;;;;;;;1.70;1.30;;;7.40;1.00;;;;;;5057185;28;20197;-36
2023/01/04 09:07:31;;;;;;;2.20;1.67;;;7.40;1.00;;;;;;5058021;28;20933;-37
2023/01/04 09:09:57;;;;;;;2.10;1.70;;;7.50;1.00;;;;;;5058213;28;20522;-36
2023/01/04 09:12:24;;;;;;;2.60;2.20;;;7.50;1.00;;;;;;5055881;28;20838;-36
2023/01/04 09:14:49;;;;;;;2.23;1.50;;;7.50;1.00;;;;;;5059449;28;20595;-36
2023/01/04 09:17:15;;;;;;;1.47;1.20;;;7.60;1.00;;;;;;5059325;28;20910;-36
2023/01/04 09:19:41;;;;;;;1.87;1.60;;;7.60;99.90;;;;;;5058131;28;20174;-36
2023/01/04 09:22:06;;;;;;;2.13;1.30;;;7.70;99.90;;;;;;5059285;28;20488;-36
2023/01/04 09:24:33;;;;;;;2.23;1.57;;;7.70;99.90;;;;;;5059519;28;20181;-36
2023/01/04 09:26:58;;;;;;;2.33;1.43;;;7.80;99.90;;;;;;5058322;28;20212;-36
2023/01/04 09:29:26;;;;;;;3.60;1.40;;;7.80;1.00;;;;;;5058872;28;20420;-36
2023/01/04 09:31:55;;;;;;;2.43;1.50;;;7.90;1.00;;;;;;5058224;28;20178;-36
2023/01/04 09:34:20;;;;;;;1.87;1.27;;;8.00;1.00;;;;;;5058733;28;20412;-37
2023/01/04 09:36:47;;;;;;;2.80;1.77;;;8.00;1.00;;;;;;5059592;28;20431;-36
2023/01/04 09:39:13;;;;;;;3.30;1.83;;;8.20;99.90;;;;;;5059217;28;20184;-37
2023/01/04 09:41:54;;;;;;;2.27;1.20;;;8.20;99.90;;;;;;5058412;28;20417;-36
2023/01/04 09:44:30;;;;;;;1.70;1.23;;;8.20;99.90;;;;;;5057171;28;20451;-37
2023/01/04 09:47:09;;;;;;;2.23;1.13;;;8.20;99.90;;;;;;5059110;28;20534;-37
2023/01/04 09:49:45;;;;;;;2.00;1.37;;;8.30;99.90;;;;;;5057589;28;20419;-37
2023/01/04 09:52:24;;;;;;;1.77;0.90;;;8.30;99.90;;;;;;5059275;28;20428;-37
2023/01/04 09:54:54;;;;;;;2.57;1.30;;;8.40;49.90;;;;;;5060011;28;20416;-37
2023/01/04 09:57:35;;;;;;;2.80;1.37;;;8.40;26.50;;;;;;5060138;28;20893;-37
2023/01/04 10:00:27;;;;;;;1.73;1.03;;;8.40;5.80;;;;;;5054320;28;20451;-37
2023/01/04 10:03:22;;;;;;;2.17;1.17;;;8.40;1.00;;;;;;5036468;28;20449;-37
2023/01/04 10:05:48;;;;;;;2.50;1.23;;;8.40;1.00;;;;;;5033752;28;20428;-39
2023/01/04 10:08:16;;;;;;;1.90;1.37;;;8.40;1.00;;;;;;5037204;28;20433;-36
2023/01/04 10:10:51;;;;;;;1.73;1.10;;;8.50;1.00;;;;;;5037539;28;20751;-36
2023/01/04 10:13:40;;;;;;;1.70;1.30;;;8.50;1.00;;;;;;5037364;28;20437;-36
2023/01/04 10:16:31;;;;;;;2.70;1.23;;;8.40;1.00;;;;;;5038492;28;20405;-36
2023/01/04 10:19:37;;;;;;;1.90;1.30;;;8.50;1.00;;;;;;5056803;28;20424;-37
2023/01/04 10:22:19;;;;;;;2.60;1.27;;;8.50;10.20;;;;;;5046266;28;20727;-37
2023/01/04 10:25:15;;;;;;;2.60;1.60;;;8.50;14.60;;;;;;5058879;28;20519;-38
2023/01/04 10:28:03;;;;;;;2.33;1.73;;;8.50;21.50;;;;;;5054925;28;20767;-37
2023/01/04 10:30:56;;;;;;;1.60;1.30;;;8.50;12.60;;;;;;5047927;28;20420;-37
2023/01/04 10:33:30;;;;;;;3.37;1.60;;;8.60;6.30;;;;;;5057479;28;20459;-36
2023/01/04 10:35:56;;;;;;;2.07;1.37;;;8.60;1.00;;;;;;5058660;28;20450;-37
2023/01/04 10:38:23;;;;;;;1.57;1.10;;;8.70;1.00;;;;;;5056918;28;20494;-37
2023/01/04 10:40:49;;;;;;;1.73;1.13;;;8.70;1.00;;;;;;5057037;28;20162;-37
2023/01/04 10:43:36;;;;;;;2.07;1.23;;;8.80;1.00;;;;;;5057294;28;20432;-37
2023/01/04 10:46:11;;;;;;;2.60;1.10;;;8.80;1.00;;;;;;5055590;28;20483;-37
2023/01/04 10:48:53;;;;;;;2.67;1.30;;;8.90;1.00;;;;;;5055641;28;20420;-36
2023/01/04 10:51:40;;;;;;;3.00;1.10;;;9.00;1.00;;;;;;5055910;28;20482;-37
2023/01/04 10:54:16;;;;;;;2.30;1.20;;;9.10;1.00;;;;;;5054177;28;20443;-36
2023/01/04 10:56:55;;;;;;;1.87;0.90;;;9.20;99.90;;;;;;5057178;28;20442;-36
2023/01/04 10:59:24;;;;;;;1.77;1.20;;;9.30;99.90;;;;;;5055186;28;20412;-37
2023/01/04 11:02:18;;;;;;;1.63;1.07;;;9.40;99.90;;;;;;5056460;28;20436;-37
2023/01/04 11:04:59;;;;;;;3.77;1.27;;;9.50;99.90;;;;;;5054623;28;20436;-37
2023/01/04 11:07:36;;;;;;;2.03;1.00;;;9.50;99.90;;;;;;5055342;28;20571;-37
2023/01/04 11:10:23;;;;;;;2.03;1.00;;;9.50;74.80;;;;;;5055533;28;20416;-38
2023/01/04 11:12:48;;;;;;;2.23;1.27;;;9.60;20.80;;;;;;5057857;28;20432;-37
2023/01/04 11:15:14;;;;;;;2.63;1.10;;;9.50;27.30;;;;;;5057739;28;20404;-37
2023/01/04 11:17:42;;;;;;;2.63;1.07;;;9.60;39.20;;;;;;5056783;28;20561;-37
2023/01/04 11:20:08;;;;;;;1.20;0.80;;;9.60;44.30;;;;;;5055506;28;20273;-37
2023/01/04 11:22:47;;;;;;;1.80;1.17;;;9.60;39.80;;;;;;5056553;28;20479;-36
2023/01/04 11:25:17;;;;;;;2.57;1.00;;;9.60;41.40;;;;;;5056307;28;20424;-37
2023/01/04 11:27:55;;;;;;;1.13;0.77;;;9.60;53.20;;;;;;5055676;28;20530;-37
2023/01/04 11:30:36;;;;;;;2.43;1.00;;;9.60;51.90;;;;;;5057603;28;20434;-38
2023/01/04 11:33:15;;;;;;;1.50;0.90;;;9.60;62.90;;;;;;5056133;28;20447;-37
2023/01/04 11:35:42;;;;;;;1.30;0.90;;;9.60;55.10;;;;;;5055940;28;20411;-37
2023/01/04 11:38:21;;;;;;;3.13;1.20;;;10.10;99.90;;;;;;5056062;28;20423;-37
2023/01/04 11:40:54;;;;;;;1.83;1.23;;;10.70;99.90;;;;;;5055238;28;20411;-37
2023/01/04 11:43:21;;;;;;;2.20;1.20;;;11.10;99.90;;;;;;5057068;28;20468;-36
2023/01/04 11:45:58;;;;;;;2.53;1.10;;;11.60;99.90;;;;;;5055513;28;20451;-36
2023/01/04 11:48:35;;;;;;;2.07;1.00;;;12.00;1.00;;;;;;5053804;28;20700;-37
2023/01/04 11:51:01;;;;;;;3.33;1.00;;;12.30;99.90;;;;;;5054026;28;20462;-37
2023/01/04 11:53:30;;;;;;;2.77;1.07;;;12.50;99.90;;;;;;5053648;28;20416;-38
2023/01/04 11:56:14;;;;;;;4.10;1.20;;;12.70;1.00;;;;;;5054094;28;20470;-38
2023/01/04 11:58:41;;;;;;;2.27;1.20;;;13.00;99.90;;;;;;5053598;28;20764;-39
2023/01/04 12:01:19;;;;;;;1.30;0.90;;;13.20;99.90;;;;;;5054055;28;20425;-39
2023/01/04 12:03:45;;;;;;;1.63;0.87;;;13.30;1.00;;;;;;5053373;28;20448;-38
2023/01/04 12:06:25;;;;;;;2.20;1.13;;;13.50;1.00;;;;;;5055703;28;20483;-38
2023/01/04 12:08:51;;;;;;;2.20;1.10;;;13.50;99.90;;;;;;5054782;28;20288;-38
2023/01/04 12:11:23;;;;;;;1.77;1.10;;;13.70;99.90;;;;;;5054868;28;20526;-37
2023/01/04 12:13:48;;;;;;;2.90;1.07;;;13.80;99.90;;;;;;5052962;28;20173;-38
2023/01/04 12:16:24;;;;;;;2.20;1.10;;;13.90;1.00;;;;;;5054508;28;20415;-38
2023/01/04 12:18:49;;;;;;;1.50;1.00;;;13.90;1.00;;;;;;5055165;28;20264;-38
2023/01/04 12:21:24;;;;;;;1.97;1.30;;;14.00;99.90;;;;;;5057510;28;21951;-37
2023/01/04 12:23:51;;;;;;;1.77;1.33;;;14.00;99.90;;;;;;5058708;28;20196;-38
2023/01/04 12:26:17;;;;;;;2.00;1.20;;;14.00;99.90;;;;;;5057934;28;20739;-40
2023/01/04 12:28:46;;;;;;;1.60;1.00;;;14.00;69.40;;;;;;5059216;28;20416;-39
2023/01/04 12:31:20;;;;;;;3.40;1.10;;;14.00;1.00;;;;;;5057921;28;20432;-38
2023/01/04 12:33:53;;;;;;;1.97;1.13;;;13.80;99.90;;;;;;5061052;28;20419;-40
2023/01/04 12:36:21;;;;;;;1.80;1.17;;;13.50;99.90;;;;;;5059341;28;20424;-39
2023/01/04 12:38:53;;;;;;;2.23;0.90;;;13.20;99.90;;;;;;5059925;28;20427;-38
2023/01/04 12:41:59;;;;;;;1.37;0.87;;;12.90;99.90;;;;;;5059103;28;20442;-38
2023/01/04 12:44:37;;;;;;;1.50;0.77;;;12.60;99.90;;;;;;5051573;28;20464;-37
2023/01/04 12:50:12;;;;;;;2.20;1.37;;;12.00;99.90;;;;;;5055061;28;20412;-37
2023/01/04 12:52:42;;;;;;;2.10;0.90;;;11.80;99.90;;;;;;5056821;28;20489;-37
2023/01/04 12:55:31;;;;;;;2.13;1.20;;;11.60;1.00;;;;;;5056407;28;20424;-37
2023/01/04 12:58:02;;;;;;;1.20;0.77;;;11.50;1.00;;;;;;5056399;28;20531;-37
2023/01/04 13:00:51;;;;;;;1.57;0.60;;;11.50;1.00;;;;;;5056016;28;20432;-38
2023/01/04 13:03:16;;;;;;;1.97;1.20;;;11.40;1.00;;;;;;5046877;28;20542;-37
2023/01/04 13:06:04;;;;;;;1.50;0.80;;;11.30;1.00;;;;;;5057810;28;20495;-38
2023/01/04 13:08:34;;;;;;;2.13;0.80;;;11.40;1.00;;;;;;5019470;28;20187;-37
2023/01/04 13:11:00;;;;;;;1.70;0.70;;;11.30;1.00;;;;;;5037547;28;20412;-38
2023/01/04 13:13:44;;;;;;;1.40;0.80;;;11.40;1.00;;;;;;5036101;28;20898;-37
2023/01/04 13:16:45;;;;;;;2.90;0.93;;;11.40;1.00;;;;;;5037659;28;20401;-37
2023/01/04 13:19:13;;;;;;;1.90;1.13;;;11.40;1.00;;;;;;5024009;28;20425;-38
2023/01/04 13:21:46;;;;;;;4.17;1.10;;;11.40;1.00;;;;;;5034786;28;20503;-36
2023/01/04 13:24:35;;;;;;;2.73;0.70;;;11.50;1.00;;;;;;5035075;28;20821;-37
2023/01/04 13:27:11;;;;;;;2.13;1.00;;;11.50;1.00;;;;;;5038428;28;20475;-37
2023/01/04 13:29:40;;;;;;;1.50;0.80;;;11.50;1.00;;;;;;5059097;28;20444;-38
2023/01/04 13:32:12;;;;;;;2.80;1.00;;;11.50;99.90;;;;;;5057900;28;20435;-36
2023/01/04 13:35:07;;;;;;;3.00;1.10;;;11.60;99.90;;;;;;5057628;28;20478;-37
2023/01/04 13:37:46;;;;;;;1.70;0.80;;;11.60;22.40;;;;;;5056386;28;20436;-36
2023/01/04 13:40:21;;;;;;;2.00;0.80;;;11.50;1.00;;;;;;5057583;28;20432;-37
2023/01/04 13:43:01;;;;;;;2.17;0.93;;;11.40;1.00;;;;;;5060088;28;20428;-38
2023/01/04 13:46:15;;;;;;;3.03;0.93;;;11.40;5.10;;;;;;5058214;28;20709;-37
2023/01/04 13:48:42;;;;;;;1.20;0.83;;;11.30;53.70;;;;;;5048075;28;20466;-37
2023/01/04 13:51:14;;;;;;;1.13;0.63;;;11.20;92.20;;;;;;5055720;28;20418;-37
2023/01/04 13:53:40;;;;;;;1.20;0.80;;;11.20;73.50;;;;;;5055861;28;20412;-37
2023/01/04 13:56:13;;;;;;;2.50;1.00;;;11.20;99.90;;;;;;5054990;28;20482;-38
2023/01/04 13:58:39;;;;;;;2.07;0.90;;;11.20;99.90;;;;;;5057951;28;20484;-38
2023/01/04 14:01:27;;;;;;;1.80;0.90;;;11.20;99.90;;;;;;5058249;28;20463;-35
2023/01/04 14:03:55;;;;;;;1.57;0.80;;;11.20;99.90;;;;;;5057765;28;20455;-37
2023/01/04 14:06:30;;;;;;;1.20;0.90;;;11.20;99.90;;;;;;5056636;28;20472;-37
2023/01/04 14:09:04;;;;;;;1.33;1.00;;;11.30;99.90;;;;;;5055920;28;20412;-37
2023/01/04 14:11:58;;;;;;;1.97;0.73;;;11.20;99.90;;;;;;5055388;28;20416;-37
2023/01/04 14:14:30;;;;;;;5.33;0.70;;;11.20;99.90;;;;;;5054933;28;20790;-37